sensor_id;sensor_type;location;lat;lon;timestamp;P1;durP1;ratioP1;P2;durP2;ratioP2
23362;SDS011;11853;48.080;11.960;2023-03-31T00:01:32;5.85;;;4.30;;
23362;SDS011;11853;48.080;11.960;2023-03-31T00:03:58;6.95;;;4.40;;
23362;SDS011;11853;48.080;11.960;2023-03-31T00:06:29;8.30;;;4.82;;
23362;SDS011;11853;48.080;11.960;2023-03-31T00:09:02;7.75;;;4.53;;
23362;SDS011;11853;48.080;11.960;2023-03-31T00:11:40;7.85;;;4.25;;
23362;SDS011;11853;48.080;11.960;2023-03-31T00:14:06;5.15;;;4.32;;
23362;SDS011;11853;48.080;11.960;2023-03-31T00:16:33;7.88;;;4.80;;
23362;SDS011;11853;48.080;11.960;2023-03-31T00:18:59;9.43;;;5.40;;
23362;SDS011;11853;48.080;11.960;2023-03-31T00:21:26;6.00;;;4.43;;
23362;SDS011;11853;48.080;11.960;2023-03-31T00:23:59;7.65;;;4.90;;
23362;SDS011;11853;48.080;11.960;2023-03-31T00:26:26;7.78;;;5.30;;
23362;SDS011;11853;48.080;11.960;2023-03-31T00:28:53;9.02;;;5.00;;
23362;SDS011;11853;48.080;11.960;2023-03-31T00:31:20;8.20;;;5.20;;
23362;SDS011;11853;48.080;11.960;2023-03-31T00:33:46;7.70;;;5.28;;
23362;SDS011;11853;48.080;11.960;2023-03-31T00:36:12;7.15;;;5.10;;
23362;SDS011;11853;48.080;11.960;2023-03-31T00:38:45;8.80;;;5.15;;
23362;SDS011;11853;48.080;11.960;2023-03-31T00:41:12;5.85;;;4.60;;
23362;SDS011;11853;48.080;11.960;2023-03-31T00:43:39;5.85;;;4.80;;
23362;SDS011;11853;48.080;11.960;2023-03-31T00:46:09;6.53;;;5.45;;
23362;SDS011;11853;48.080;11.960;2023-03-31T00:48:46;8.98;;;5.15;;
23362;SDS011;11853;48.080;11.960;2023-03-31T00:51:16;7.70;;;5.45;;
23362;SDS011;11853;48.080;11.960;2023-03-31T00:53:45;10.48;;;5.63;;
23362;SDS011;11853;48.080;11.960;2023-03-31T00:56:21;8.70;;;5.20;;
23362;SDS011;11853;48.080;11.960;2023-03-31T00:58:48;7.25;;;5.20;;
23362;SDS011;11853;48.080;11.960;2023-03-31T01:01:18;8.75;;;5.13;;
23362;SDS011;11853;48.080;11.960;2023-03-31T01:03:48;7.22;;;4.82;;
23362;SDS011;11853;48.080;11.960;2023-03-31T01:06:16;6.60;;;5.45;;
23362;SDS011;11853;48.080;11.960;2023-03-31T01:08:44;6.68;;;4.93;;
23362;SDS011;11853;48.080;11.960;2023-03-31T01:11:13;6.18;;;5.15;;
23362;SDS011;11853;48.080;11.960;2023-03-31T01:13:43;7.05;;;5.35;;
23362;SDS011;11853;48.080;11.960;2023-03-31T01:16:10;6.15;;;4.82;;
23362;SDS011;11853;48.080;11.960;2023-03-31T01:18:36;7.80;;;5.25;;
23362;SDS011;11853;48.080;11.960;2023-03-31T01:24:29;6.68;;;5.60;;
23362;SDS011;11853;48.080;11.960;2023-03-31T01:35:30;7.30;;;6.03;;
23362;SDS011;11853;48.080;11.960;2023-03-31T01:48:55;7.80;;;5.63;;
23362;SDS011;11853;48.080;11.960;2023-03-31T01:51:30;6.22;;;5.38;;
23362;SDS011;11853;48.080;11.960;2023-03-31T01:54:19;7.72;;;4.97;;
23362;SDS011;11853;48.080;11.960;2023-03-31T01:56:56;9.18;;;5.90;;
23362;SDS011;11853;48.080;11.960;2023-03-31T01:59:31;6.45;;;5.55;;
23362;SDS011;11853;48.080;11.960;2023-03-31T02:02:20;7.97;;;5.90;;
23362;SDS011;11853;48.080;11.960;2023-03-31T02:05:05;6.38;;;5.47;;
23362;SDS011;11853;48.080;11.960;2023-03-31T02:07:38;9.57;;;5.82;;
23362;SDS011;11853;48.080;11.960;2023-03-31T02:10:08;7.72;;;5.55;;
23362;SDS011;11853;48.080;11.960;2023-03-31T02:12:36;5.65;;;5.05;;
23362;SDS011;11853;48.080;11.960;2023-03-31T02:15:04;6.20;;;5.60;;
23362;SDS011;11853;48.080;11.960;2023-03-31T02:17:34;6.55;;;5.30;;
23362;SDS011;11853;48.080;11.960;2023-03-31T02:20:08;7.60;;;5.93;;
23362;SDS011;11853;48.080;11.960;2023-03-31T02:22:37;5.75;;;5.07;;
23362;SDS011;11853;48.080;11.960;2023-03-31T02:25:07;8.23;;;5.60;;
23362;SDS011;11853;48.080;11.960;2023-03-31T02:27:41;7.43;;;5.38;;
23362;SDS011;11853;48.080;11.960;2023-03-31T02:30:11;7.38;;;5.38;;
23362;SDS011;11853;48.080;11.960;2023-03-31T02:32:42;5.63;;;5.15;;
23362;SDS011;11853;48.080;11.960;2023-03-31T02:35:10;7.65;;;5.28;;
23362;SDS011;11853;48.080;11.960;2023-03-31T02:37:39;5.93;;;5.30;;
23362;SDS011;11853;48.080;11.960;2023-03-31T02:40:07;7.28;;;5.93;;
23362;SDS011;11853;48.080;11.960;2023-03-31T02:42:37;6.47;;;5.45;;
23362;SDS011;11853;48.080;11.960;2023-03-31T02:45:04;5.93;;;5.32;;
23362;SDS011;11853;48.080;11.960;2023-03-31T02:47:32;6.18;;;5.32;;
23362;SDS011;11853;48.080;11.960;2023-03-31T02:49:58;6.80;;;5.35;;
23362;SDS011;11853;48.080;11.960;2023-03-31T02:55:15;9.07;;;6.30;;
23362;SDS011;11853;48.080;11.960;2023-03-31T03:01:07;7.38;;;6.57;;
23362;SDS011;11853;48.080;11.960;2023-03-31T03:11:58;7.20;;;5.85;;
23362;SDS011;11853;48.080;11.960;2023-03-31T03:17:13;7.82;;;6.25;;
23362;SDS011;11853;48.080;11.960;2023-03-31T03:19:54;7.57;;;5.95;;
23362;SDS011;11853;48.080;11.960;2023-03-31T03:24:48;7.50;;;6.13;;
23362;SDS011;11853;48.080;11.960;2023-03-31T03:27:14;7.95;;;6.38;;
23362;SDS011;11853;48.080;11.960;2023-03-31T03:29:40;7.00;;;5.60;;
23362;SDS011;11853;48.080;11.960;2023-03-31T03:32:07;6.95;;;5.70;;
23362;SDS011;11853;48.080;11.960;2023-03-31T03:34:33;7.07;;;5.68;;
23362;SDS011;11853;48.080;11.960;2023-03-31T03:36:59;7.30;;;6.43;;
23362;SDS011;11853;48.080;11.960;2023-03-31T03:39:25;10.65;;;7.10;;
23362;SDS011;11853;48.080;11.960;2023-03-31T03:41:51;8.32;;;7.53;;
23362;SDS011;11853;48.080;11.960;2023-03-31T03:44:17;11.45;;;9.18;;
23362;SDS011;11853;48.080;11.960;2023-03-31T03:46:42;13.02;;;8.50;;
23362;SDS011;11853;48.080;11.960;2023-03-31T03:49:08;13.32;;;8.45;;
23362;SDS011;11853;48.080;11.960;2023-03-31T03:51:34;8.60;;;7.20;;
23362;SDS011;11853;48.080;11.960;2023-03-31T03:53:59;10.02;;;7.13;;
23362;SDS011;11853;48.080;11.960;2023-03-31T03:56:25;8.65;;;7.13;;
23362;SDS011;11853;48.080;11.960;2023-03-31T03:58:51;8.90;;;6.72;;
23362;SDS011;11853;48.080;11.960;2023-03-31T04:01:16;8.15;;;6.97;;
23362;SDS011;11853;48.080;11.960;2023-03-31T04:03:43;11.02;;;6.82;;
23362;SDS011;11853;48.080;11.960;2023-03-31T04:06:08;8.35;;;6.95;;
23362;SDS011;11853;48.080;11.960;2023-03-31T04:08:34;9.13;;;6.65;;
23362;SDS011;11853;48.080;11.960;2023-03-31T04:11:01;9.63;;;6.55;;
23362;SDS011;11853;48.080;11.960;2023-03-31T04:13:27;8.43;;;6.10;;
23362;SDS011;11853;48.080;11.960;2023-03-31T04:15:53;7.88;;;5.40;;
23362;SDS011;11853;48.080;11.960;2023-03-31T04:18:18;8.43;;;5.78;;
23362;SDS011;11853;48.080;11.960;2023-03-31T04:20:50;6.97;;;5.93;;
23362;SDS011;11853;48.080;11.960;2023-03-31T04:23:33;7.43;;;5.47;;
23362;SDS011;11853;48.080;11.960;2023-03-31T04:26:02;11.52;;;5.85;;
23362;SDS011;11853;48.080;11.960;2023-03-31T04:28:33;9.38;;;6.30;;
23362;SDS011;11853;48.080;11.960;2023-03-31T04:31:03;5.82;;;5.22;;
23362;SDS011;11853;48.080;11.960;2023-03-31T04:33:31;7.45;;;5.30;;
23362;SDS011;11853;48.080;11.960;2023-03-31T04:36:05;9.77;;;5.28;;
23362;SDS011;11853;48.080;11.960;2023-03-31T04:38:44;6.88;;;5.50;;
23362;SDS011;11853;48.080;11.960;2023-03-31T04:41:17;9.07;;;5.93;;
23362;SDS011;11853;48.080;11.960;2023-03-31T04:43:43;13.55;;;9.30;;
23362;SDS011;11853;48.080;11.960;2023-03-31T04:46:09;13.13;;;9.45;;
23362;SDS011;11853;48.080;11.960;2023-03-31T04:48:35;8.23;;;7.40;;
23362;SDS011;11853;48.080;11.960;2023-03-31T04:51:00;9.75;;;6.72;;
23362;SDS011;11853;48.080;11.960;2023-03-31T04:53:26;11.43;;;6.18;;
23362;SDS011;11853;48.080;11.960;2023-03-31T04:55:52;8.30;;;5.53;;
23362;SDS011;11853;48.080;11.960;2023-03-31T04:58:18;7.50;;;5.53;;
23362;SDS011;11853;48.080;11.960;2023-03-31T05:00:43;7.93;;;5.53;;
23362;SDS011;11853;48.080;11.960;2023-03-31T05:03:09;10.13;;;5.90;;
23362;SDS011;11853;48.080;11.960;2023-03-31T05:05:35;8.07;;;6.03;;
23362;SDS011;11853;48.080;11.960;2023-03-31T05:08:01;11.00;;;6.25;;
23362;SDS011;11853;48.080;11.960;2023-03-31T05:10:28;7.35;;;5.38;;
23362;SDS011;11853;48.080;11.960;2023-03-31T05:12:53;8.70;;;5.45;;
23362;SDS011;11853;48.080;11.960;2023-03-31T05:15:19;9.95;;;5.50;;
23362;SDS011;11853;48.080;11.960;2023-03-31T05:17:45;6.65;;;5.65;;
23362;SDS011;11853;48.080;11.960;2023-03-31T05:20:11;9.52;;;5.70;;
23362;SDS011;11853;48.080;11.960;2023-03-31T05:22:38;6.53;;;5.45;;
23362;SDS011;11853;48.080;11.960;2023-03-31T05:25:05;8.43;;;5.78;;
23362;SDS011;11853;48.080;11.960;2023-03-31T05:27:32;7.60;;;6.45;;
23362;SDS011;11853;48.080;11.960;2023-03-31T05:29:58;11.90;;;7.10;;
23362;SDS011;11853;48.080;11.960;2023-03-31T05:32:24;12.50;;;9.32;;
23362;SDS011;11853;48.080;11.960;2023-03-31T05:34:51;10.02;;;8.02;;
23362;SDS011;11853;48.080;11.960;2023-03-31T05:37:21;10.40;;;7.68;;
23362;SDS011;11853;48.080;11.960;2023-03-31T05:39:48;11.05;;;7.70;;
23362;SDS011;11853;48.080;11.960;2023-03-31T05:42:14;13.07;;;8.25;;
23362;SDS011;11853;48.080;11.960;2023-03-31T05:44:39;9.85;;;7.50;;
23362;SDS011;11853;48.080;11.960;2023-03-31T05:47:05;8.13;;;6.70;;
23362;SDS011;11853;48.080;11.960;2023-03-31T05:49:31;8.73;;;7.30;;
23362;SDS011;11853;48.080;11.960;2023-03-31T05:51:56;10.57;;;8.02;;
23362;SDS011;11853;48.080;11.960;2023-03-31T05:54:22;11.98;;;8.02;;
23362;SDS011;11853;48.080;11.960;2023-03-31T05:56:48;10.95;;;8.05;;
23362;SDS011;11853;48.080;11.960;2023-03-31T05:59:13;10.63;;;6.90;;
23362;SDS011;11853;48.080;11.960;2023-03-31T06:01:39;7.75;;;6.80;;
23362;SDS011;11853;48.080;11.960;2023-03-31T06:04:05;10.05;;;8.07;;
23362;SDS011;11853;48.080;11.960;2023-03-31T06:06:31;9.82;;;8.60;;
23362;SDS011;11853;48.080;11.960;2023-03-31T06:08:59;9.77;;;7.93;;
23362;SDS011;11853;48.080;11.960;2023-03-31T06:11:25;11.35;;;7.80;;
23362;SDS011;11853;48.080;11.960;2023-03-31T06:13:51;9.85;;;7.18;;
23362;SDS011;11853;48.080;11.960;2023-03-31T06:16:17;11.95;;;8.43;;
23362;SDS011;11853;48.080;11.960;2023-03-31T06:18:43;8.32;;;6.78;;
23362;SDS011;11853;48.080;11.960;2023-03-31T06:21:14;8.68;;;6.00;;
23362;SDS011;11853;48.080;11.960;2023-03-31T06:23:41;9.45;;;5.97;;
23362;SDS011;11853;48.080;11.960;2023-03-31T06:26:11;8.05;;;6.60;;
23362;SDS011;11853;48.080;11.960;2023-03-31T06:28:38;7.63;;;6.03;;
23362;SDS011;11853;48.080;11.960;2023-03-31T06:31:04;8.77;;;6.20;;
23362;SDS011;11853;48.080;11.960;2023-03-31T06:33:32;10.05;;;7.13;;
23362;SDS011;11853;48.080;11.960;2023-03-31T06:35:58;7.10;;;5.95;;
23362;SDS011;11853;48.080;11.960;2023-03-31T06:38:26;9.73;;;6.63;;
23362;SDS011;11853;48.080;11.960;2023-03-31T06:40:52;7.03;;;6.32;;
23362;SDS011;11853;48.080;11.960;2023-03-31T06:43:18;11.45;;;7.13;;
23362;SDS011;11853;48.080;11.960;2023-03-31T06:45:44;10.40;;;6.47;;
23362;SDS011;11853;48.080;11.960;2023-03-31T06:48:11;8.10;;;7.25;;
23362;SDS011;11853;48.080;11.960;2023-03-31T06:50:37;8.43;;;7.07;;
23362;SDS011;11853;48.080;11.960;2023-03-31T06:53:03;8.18;;;7.38;;
23362;SDS011;11853;48.080;11.960;2023-03-31T06:55:29;7.45;;;6.55;;
23362;SDS011;11853;48.080;11.960;2023-03-31T06:57:56;8.73;;;6.88;;
23362;SDS011;11853;48.080;11.960;2023-03-31T07:00:22;10.13;;;7.80;;
23362;SDS011;11853;48.080;11.960;2023-03-31T07:02:50;10.95;;;7.90;;
23362;SDS011;11853;48.080;11.960;2023-03-31T07:05:15;9.98;;;7.25;;
23362;SDS011;11853;48.080;11.960;2023-03-31T07:07:42;7.45;;;6.72;;
23362;SDS011;11853;48.080;11.960;2023-03-31T07:10:08;7.57;;;6.78;;
23362;SDS011;11853;48.080;11.960;2023-03-31T07:12:33;8.07;;;6.50;;
23362;SDS011;11853;48.080;11.960;2023-03-31T07:14:59;9.35;;;7.60;;
23362;SDS011;11853;48.080;11.960;2023-03-31T07:17:25;7.63;;;6.82;;
23362;SDS011;11853;48.080;11.960;2023-03-31T07:19:51;10.30;;;7.85;;
23362;SDS011;11853;48.080;11.960;2023-03-31T07:22:16;8.10;;;7.30;;
23362;SDS011;11853;48.080;11.960;2023-03-31T07:24:42;8.00;;;7.20;;
23362;SDS011;11853;48.080;11.960;2023-03-31T07:27:07;8.15;;;6.80;;
23362;SDS011;11853;48.080;11.960;2023-03-31T07:29:34;9.65;;;7.50;;
23362;SDS011;11853;48.080;11.960;2023-03-31T07:32:00;7.88;;;6.97;;
23362;SDS011;11853;48.080;11.960;2023-03-31T07:34:25;8.90;;;8.00;;
23362;SDS011;11853;48.080;11.960;2023-03-31T07:36:53;7.88;;;7.03;;
23362;SDS011;11853;48.080;11.960;2023-03-31T07:39:19;8.43;;;7.53;;
23362;SDS011;11853;48.080;11.960;2023-03-31T07:41:45;8.48;;;7.50;;
23362;SDS011;11853;48.080;11.960;2023-03-31T07:44:10;7.70;;;6.90;;
23362;SDS011;11853;48.080;11.960;2023-03-31T07:46:36;10.23;;;7.15;;
23362;SDS011;11853;48.080;11.960;2023-03-31T07:49:02;8.20;;;7.13;;
23362;SDS011;11853;48.080;11.960;2023-03-31T07:51:27;7.88;;;7.03;;
23362;SDS011;11853;48.080;11.960;2023-03-31T07:53:53;8.18;;;6.97;;
23362;SDS011;11853;48.080;11.960;2023-03-31T07:56:20;7.72;;;6.88;;
23362;SDS011;11853;48.080;11.960;2023-03-31T07:58:48;7.82;;;6.93;;
23362;SDS011;11853;48.080;11.960;2023-03-31T08:01:16;9.90;;;6.82;;
23362;SDS011;11853;48.080;11.960;2023-03-31T08:03:46;13.38;;;12.02;;
23362;SDS011;11853;48.080;11.960;2023-03-31T08:06:19;9.32;;;8.27;;
23362;SDS011;11853;48.080;11.960;2023-03-31T08:08:47;7.45;;;6.75;;
23362;SDS011;11853;48.080;11.960;2023-03-31T08:11:14;7.47;;;6.78;;
23362;SDS011;11853;48.080;11.960;2023-03-31T08:13:40;7.65;;;6.65;;
23362;SDS011;11853;48.080;11.960;2023-03-31T08:16:06;7.80;;;6.85;;
23362;SDS011;11853;48.080;11.960;2023-03-31T08:18:32;8.57;;;7.38;;
23362;SDS011;11853;48.080;11.960;2023-03-31T08:20:57;8.25;;;7.45;;
23362;SDS011;11853;48.080;11.960;2023-03-31T08:23:23;11.55;;;9.00;;
23362;SDS011;11853;48.080;11.960;2023-03-31T08:25:49;11.75;;;7.57;;
23362;SDS011;11853;48.080;11.960;2023-03-31T08:28:15;8.55;;;7.70;;
23362;SDS011;11853;48.080;11.960;2023-03-31T08:30:47;8.27;;;7.18;;
23362;SDS011;11853;48.080;11.960;2023-03-31T08:33:12;9.00;;;8.10;;
23362;SDS011;11853;48.080;11.960;2023-03-31T08:35:41;9.00;;;7.32;;
23362;SDS011;11853;48.080;11.960;2023-03-31T08:38:10;7.82;;;6.82;;
23362;SDS011;11853;48.080;11.960;2023-03-31T08:40:36;9.02;;;7.60;;
23362;SDS011;11853;48.080;11.960;2023-03-31T08:43:07;8.07;;;7.22;;
23362;SDS011;11853;48.080;11.960;2023-03-31T08:45:44;9.18;;;8.10;;
23362;SDS011;11853;48.080;11.960;2023-03-31T08:48:23;9.80;;;8.85;;
23362;SDS011;11853;48.080;11.960;2023-03-31T08:50:59;9.43;;;8.45;;
23362;SDS011;11853;48.080;11.960;2023-03-31T08:53:41;11.25;;;8.00;;
23362;SDS011;11853;48.080;11.960;2023-03-31T08:56:15;9.55;;;7.45;;
23362;SDS011;11853;48.080;11.960;2023-03-31T08:58:45;10.80;;;8.93;;
23362;SDS011;11853;48.080;11.960;2023-03-31T09:01:26;9.88;;;8.88;;
23362;SDS011;11853;48.080;11.960;2023-03-31T09:06:33;8.40;;;7.55;;
23362;SDS011;11853;48.080;11.960;2023-03-31T09:09:02;10.25;;;9.18;;
23362;SDS011;11853;48.080;11.960;2023-03-31T09:14:08;9.95;;;8.75;;
23362;SDS011;11853;48.080;11.960;2023-03-31T09:16:51;8.88;;;7.97;;
23362;SDS011;11853;48.080;11.960;2023-03-31T09:19:35;10.77;;;8.32;;
23362;SDS011;11853;48.080;11.960;2023-03-31T09:22:08;9.93;;;8.70;;
23362;SDS011;11853;48.080;11.960;2023-03-31T09:24:51;9.90;;;8.10;;
23362;SDS011;11853;48.080;11.960;2023-03-31T09:27:31;13.15;;;7.88;;
23362;SDS011;11853;48.080;11.960;2023-03-31T09:30:02;10.38;;;8.48;;
23362;SDS011;11853;48.080;11.960;2023-03-31T09:32:30;22.67;;;15.75;;
23362;SDS011;11853;48.080;11.960;2023-03-31T09:35:41;10.55;;;8.52;;
23362;SDS011;11853;48.080;11.960;2023-03-31T09:37:46;8.20;;;6.78;;
23362;SDS011;11853;48.080;11.960;2023-03-31T09:40:23;10.40;;;9.30;;
23362;SDS011;11853;48.080;11.960;2023-03-31T09:43:01;9.90;;;7.55;;
23362;SDS011;11853;48.080;11.960;2023-03-31T09:45:30;7.78;;;6.97;;
23362;SDS011;11853;48.080;11.960;2023-03-31T09:48:04;7.68;;;6.65;;
23362;SDS011;11853;48.080;11.960;2023-03-31T09:50:46;6.53;;;5.93;;
23362;SDS011;11853;48.080;11.960;2023-03-31T09:53:21;7.72;;;6.78;;
23362;SDS011;11853;48.080;11.960;2023-03-31T09:56:00;7.53;;;6.45;;
23362;SDS011;11853;48.080;11.960;2023-03-31T09:58:27;10.30;;;6.15;;
23362;SDS011;11853;48.080;11.960;2023-03-31T10:03:30;6.90;;;5.90;;
23362;SDS011;11853;48.080;11.960;2023-03-31T10:06:01;7.22;;;6.53;;
23362;SDS011;11853;48.080;11.960;2023-03-31T10:08:33;7.32;;;6.50;;
23362;SDS011;11853;48.080;11.960;2023-03-31T10:13:40;14.48;;;12.43;;
23362;SDS011;11853;48.080;11.960;2023-03-31T10:16:24;14.27;;;10.90;;
23362;SDS011;11853;48.080;11.960;2023-03-31T10:21:40;6.55;;;5.03;;
23362;SDS011;11853;48.080;11.960;2023-03-31T10:24:10;6.88;;;4.95;;
23362;SDS011;11853;48.080;11.960;2023-03-31T10:26:36;10.32;;;6.00;;
23362;SDS011;11853;48.080;11.960;2023-03-31T10:29:14;8.13;;;5.22;;
23362;SDS011;11853;48.080;11.960;2023-03-31T10:31:49;8.80;;;7.00;;
23362;SDS011;11853;48.080;11.960;2023-03-31T10:34:16;8.95;;;7.05;;
23362;SDS011;11853;48.080;11.960;2023-03-31T10:36:47;13.90;;;9.63;;
23362;SDS011;11853;48.080;11.960;2023-03-31T10:39:16;7.85;;;6.43;;
23362;SDS011;11853;48.080;11.960;2023-03-31T10:41:42;10.30;;;6.65;;
23362;SDS011;11853;48.080;11.960;2023-03-31T10:44:33;11.70;;;7.85;;
23362;SDS011;11853;48.080;11.960;2023-03-31T10:49:40;6.75;;;5.57;;
23362;SDS011;11853;48.080;11.960;2023-03-31T10:52:15;5.05;;;4.50;;
23362;SDS011;11853;48.080;11.960;2023-03-31T10:54:50;6.60;;;4.50;;
23362;SDS011;11853;48.080;11.960;2023-03-31T10:57:20;6.28;;;4.90;;
23362;SDS011;11853;48.080;11.960;2023-03-31T11:00:31;4.55;;;4.15;;
23362;SDS011;11853;48.080;11.960;2023-03-31T11:19:30;4.82;;;3.80;;
23362;SDS011;11853;48.080;11.960;2023-03-31T11:22:14;6.80;;;4.95;;
23362;SDS011;11853;48.080;11.960;2023-03-31T11:33:27;9.68;;;4.95;;
23362;SDS011;11853;48.080;11.960;2023-03-31T11:36:25;7.45;;;5.53;;
23362;SDS011;11853;48.080;11.960;2023-03-31T11:39:03;8.90;;;5.55;;
23362;SDS011;11853;48.080;11.960;2023-03-31T11:41:49;6.65;;;5.05;;
23362;SDS011;11853;48.080;11.960;2023-03-31T11:44:19;7.03;;;5.07;;
23362;SDS011;11853;48.080;11.960;2023-03-31T11:49:23;2.92;;;2.00;;
23362;SDS011;11853;48.080;11.960;2023-03-31T11:54:55;2.88;;;2.03;;
23362;SDS011;11853;48.080;11.960;2023-03-31T12:00:50;3.50;;;2.42;;
23362;SDS011;11853;48.080;11.960;2023-03-31T12:03:22;2.72;;;2.50;;
23362;SDS011;11853;48.080;11.960;2023-03-31T12:06:04;2.75;;;2.55;;
23362;SDS011;11853;48.080;11.960;2023-03-31T12:11:31;3.78;;;2.80;;
23362;SDS011;11853;48.080;11.960;2023-03-31T12:16:54;3.50;;;2.50;;
23362;SDS011;11853;48.080;11.960;2023-03-31T12:19:42;5.28;;;3.03;;
23362;SDS011;11853;48.080;11.960;2023-03-31T12:22:34;3.00;;;2.00;;
23362;SDS011;11853;48.080;11.960;2023-03-31T12:25:03;6.22;;;3.92;;
23362;SDS011;11853;48.080;11.960;2023-03-31T12:27:39;9.93;;;6.40;;
23362;SDS011;11853;48.080;11.960;2023-03-31T12:32:39;8.38;;;5.63;;
23362;SDS011;11853;48.080;11.960;2023-03-31T12:37:53;3.58;;;3.20;;
23362;SDS011;11853;48.080;11.960;2023-03-31T12:40:44;2.97;;;2.53;;
23362;SDS011;11853;48.080;11.960;2023-03-31T12:46:26;7.30;;;3.95;;
23362;SDS011;11853;48.080;11.960;2023-03-31T12:52:17;3.58;;;3.13;;
23362;SDS011;11853;48.080;11.960;2023-03-31T13:02:32;7.57;;;5.68;;
23362;SDS011;11853;48.080;11.960;2023-03-31T13:04:58;5.85;;;4.60;;
23362;SDS011;11853;48.080;11.960;2023-03-31T13:09:49;6.85;;;6.15;;
23362;SDS011;11853;48.080;11.960;2023-03-31T13:12:24;6.28;;;4.60;;
23362;SDS011;11853;48.080;11.960;2023-03-31T13:14:53;6.93;;;5.85;;
23362;SDS011;11853;48.080;11.960;2023-03-31T13:17:34;7.78;;;5.65;;
23362;SDS011;11853;48.080;11.960;2023-03-31T13:22:44;3.85;;;2.72;;
23362;SDS011;11853;48.080;11.960;2023-03-31T13:27:54;4.47;;;3.22;;
23362;SDS011;11853;48.080;11.960;2023-03-31T13:35:39;2.05;;;1.33;;
23362;SDS011;11853;48.080;11.960;2023-03-31T13:38:13;2.65;;;1.50;;
23362;SDS011;11853;48.080;11.960;2023-03-31T13:46:33;1.92;;;1.08;;
23362;SDS011;11853;48.080;11.960;2023-03-31T14:03:37;2.93;;;1.60;;
23362;SDS011;11853;48.080;11.960;2023-03-31T14:09:24;4.40;;;2.45;;
23362;SDS011;11853;48.080;11.960;2023-03-31T14:11:57;5.07;;;3.10;;
23362;SDS011;11853;48.080;11.960;2023-03-31T14:14:24;7.43;;;2.80;;
23362;SDS011;11853;48.080;11.960;2023-03-31T14:16:54;3.30;;;2.10;;
23362;SDS011;11853;48.080;11.960;2023-03-31T14:33:17;4.25;;;2.10;;
23362;SDS011;11853;48.080;11.960;2023-03-31T14:38:34;5.00;;;2.50;;
23362;SDS011;11853;48.080;11.960;2023-03-31T14:41:00;5.47;;;3.13;;
23362;SDS011;11853;48.080;11.960;2023-03-31T14:43:28;4.82;;;2.83;;
23362;SDS011;11853;48.080;11.960;2023-03-31T14:46:00;5.72;;;2.80;;
23362;SDS011;11853;48.080;11.960;2023-03-31T14:48:34;5.38;;;3.08;;
23362;SDS011;11853;48.080;11.960;2023-03-31T14:51:09;4.93;;;2.70;;
23362;SDS011;11853;48.080;11.960;2023-03-31T14:53:36;5.18;;;2.50;;
23362;SDS011;11853;48.080;11.960;2023-03-31T14:56:12;5.88;;;2.88;;
23362;SDS011;11853;48.080;11.960;2023-03-31T14:58:43;3.50;;;2.20;;
23362;SDS011;11853;48.080;11.960;2023-03-31T15:01:14;4.45;;;2.10;;
23362;SDS011;11853;48.080;11.960;2023-03-31T15:03:43;1.58;;;1.33;;
23362;SDS011;11853;48.080;11.960;2023-03-31T15:06:11;3.72;;;1.38;;
23362;SDS011;11853;48.080;11.960;2023-03-31T15:08:37;2.95;;;0.88;;
23362;SDS011;11853;48.080;11.960;2023-03-31T15:11:05;1.75;;;0.80;;
23362;SDS011;11853;48.080;11.960;2023-03-31T15:13:41;0.90;;;0.70;;
23362;SDS011;11853;48.080;11.960;2023-03-31T15:16:29;1.40;;;0.60;;
23362;SDS011;11853;48.080;11.960;2023-03-31T15:21:44;1.00;;;0.60;;
23362;SDS011;11853;48.080;11.960;2023-03-31T15:24:11;1.15;;;0.60;;
23362;SDS011;11853;48.080;11.960;2023-03-31T15:26:45;0.82;;;0.65;;
23362;SDS011;11853;48.080;11.960;2023-03-31T15:29:30;0.70;;;0.60;;
23362;SDS011;11853;48.080;11.960;2023-03-31T15:31:59;1.15;;;0.70;;
23362;SDS011;11853;48.080;11.960;2023-03-31T15:34:27;0.90;;;0.90;;
23362;SDS011;11853;48.080;11.960;2023-03-31T15:36:57;3.88;;;2.47;;
23362;SDS011;11853;48.080;11.960;2023-03-31T15:39:25;4.82;;;2.97;;
23362;SDS011;11853;48.080;11.960;2023-03-31T15:41:54;2.92;;;1.80;;
23362;SDS011;11853;48.080;11.960;2023-03-31T15:44:34;2.58;;;1.10;;
23362;SDS011;11853;48.080;11.960;2023-03-31T15:47:18;1.77;;;1.20;;
23362;SDS011;11853;48.080;11.960;2023-03-31T15:50:11;1.67;;;0.93;;
23362;SDS011;11853;48.080;11.960;2023-03-31T15:52:45;1.85;;;1.23;;
23362;SDS011;11853;48.080;11.960;2023-03-31T15:57:53;4.00;;;2.13;;
23362;SDS011;11853;48.080;11.960;2023-03-31T16:03:02;3.58;;;1.67;;
23362;SDS011;11853;48.080;11.960;2023-03-31T16:05:39;3.05;;;1.95;;
23362;SDS011;11853;48.080;11.960;2023-03-31T16:08:20;2.30;;;1.60;;
23362;SDS011;11853;48.080;11.960;2023-03-31T16:11:00;1.45;;;1.35;;
23362;SDS011;11853;48.080;11.960;2023-03-31T16:13:32;4.65;;;2.13;;
23362;SDS011;11853;48.080;11.960;2023-03-31T16:16:04;2.88;;;1.60;;
23362;SDS011;11853;48.080;11.960;2023-03-31T16:18:38;1.63;;;1.35;;
23362;SDS011;11853;48.080;11.960;2023-03-31T16:21:07;2.53;;;1.25;;
23362;SDS011;11853;48.080;11.960;2023-03-31T16:23:34;1.55;;;1.35;;
23362;SDS011;11853;48.080;11.960;2023-03-31T16:26:05;2.40;;;1.35;;
23362;SDS011;11853;48.080;11.960;2023-03-31T16:28:34;2.90;;;1.50;;
23362;SDS011;11853;48.080;11.960;2023-03-31T16:31:01;2.67;;;1.10;;
23362;SDS011;11853;48.080;11.960;2023-03-31T16:33:29;1.90;;;1.17;;
23362;SDS011;11853;48.080;11.960;2023-03-31T16:35:56;2.15;;;1.30;;
23362;SDS011;11853;48.080;11.960;2023-03-31T16:38:24;5.03;;;2.65;;
23362;SDS011;11853;48.080;11.960;2023-03-31T16:40:51;3.75;;;1.77;;
23362;SDS011;11853;48.080;11.960;2023-03-31T16:45:56;2.42;;;1.33;;
23362;SDS011;11853;48.080;11.960;2023-03-31T16:48:24;2.30;;;2.00;;
23362;SDS011;11853;48.080;11.960;2023-03-31T16:50:52;2.58;;;2.00;;
23362;SDS011;11853;48.080;11.960;2023-03-31T16:53:19;2.30;;;1.58;;
23362;SDS011;11853;48.080;11.960;2023-03-31T16:55:47;2.55;;;1.40;;
23362;SDS011;11853;48.080;11.960;2023-03-31T16:58:13;2.65;;;1.23;;
23362;SDS011;11853;48.080;11.960;2023-03-31T17:00:39;2.47;;;1.38;;
23362;SDS011;11853;48.080;11.960;2023-03-31T17:03:06;1.67;;;1.20;;
23362;SDS011;11853;48.080;11.960;2023-03-31T17:05:39;3.13;;;2.08;;
23362;SDS011;11853;48.080;11.960;2023-03-31T17:08:06;2.75;;;1.75;;
23362;SDS011;11853;48.080;11.960;2023-03-31T17:10:34;2.80;;;1.63;;
23362;SDS011;11853;48.080;11.960;2023-03-31T17:13:00;2.80;;;1.83;;
23362;SDS011;11853;48.080;11.960;2023-03-31T17:15:26;2.60;;;1.63;;
23362;SDS011;11853;48.080;11.960;2023-03-31T17:17:55;3.28;;;1.90;;
23362;SDS011;11853;48.080;11.960;2023-03-31T17:20:23;3.22;;;2.45;;
23362;SDS011;11853;48.080;11.960;2023-03-31T17:22:52;3.42;;;2.30;;
23362;SDS011;11853;48.080;11.960;2023-03-31T17:25:18;3.53;;;1.20;;
23362;SDS011;11853;48.080;11.960;2023-03-31T17:27:44;0.70;;;0.70;;
23362;SDS011;11853;48.080;11.960;2023-03-31T17:30:10;0.50;;;0.47;;
23362;SDS011;11853;48.080;11.960;2023-03-31T17:32:36;1.38;;;1.05;;
23362;SDS011;11853;48.080;11.960;2023-03-31T17:35:03;0.60;;;0.60;;
23362;SDS011;11853;48.080;11.960;2023-03-31T17:37:30;1.48;;;0.90;;
23362;SDS011;11853;48.080;11.960;2023-03-31T17:39:57;2.97;;;1.35;;
23362;SDS011;11853;48.080;11.960;2023-03-31T17:42:22;2.00;;;1.75;;
23362;SDS011;11853;48.080;11.960;2023-03-31T17:44:48;1.52;;;0.65;;
23362;SDS011;11853;48.080;11.960;2023-03-31T17:47:16;0.45;;;0.45;;
23362;SDS011;11853;48.080;11.960;2023-03-31T17:49:43;1.35;;;1.15;;
23362;SDS011;11853;48.080;11.960;2023-03-31T17:52:08;2.05;;;1.23;;